»·PEaware :: N22AB KTOA-KVNY

N22AB :: KTOA-KVNY

FLIGHT INFORMATION

Flight Status: Arrived
Operator: Privately registered:
United States
More flights under this callsign
Pilot: Andrew B. (6114)
Aircraft: CESSNA 172 SKYHAWK
(C172)
More flights by this aircraft type
Origin: KTOA Zamperini
United States
Destination: KVNY Van Nuys
United States
More flights between these airports :: More routes between these airports
Route: LAX170 LIMBO V64 SMO125 SMO SMO317 CANOG
File this flight plan on PilotEdge
Remarks: +CW / Skyhigh Scenario 1
Altitude:
(Current/Filed)
4,000ft
Speed:
(Current/Filed)
115kts
Departed: 13-Dec-19 07:17 PM
Arrived: 13-Dec-19 08:43 PM
Distance/Time
Traveled:
25nm/1:26
Distance/Time
To Go:
Arrived

Flight Plot

Page will automatically refresh every two minutes.

Flight plan parsing failed; only flown route is shown


Map Options




Map Legend


Flown Route
Filed Route
Departure Airport
Arrival Airport
Navaid (VOR, NDB)
Fix

Horizontal Profiles

Position Reports

Time Latitude Longitude Heading Altitude Ground
Speed
13-Dec-19 19:06 33.799130 -118.337791 37 106ft 0kts
13-Dec-19 19:07 33.799131 -118.337790 37 106ft 0kts
13-Dec-19 19:08 33.799133 -118.337789 37 106ft 0kts
13-Dec-19 19:09 33.799134 -118.337788 37 106ft 0kts
13-Dec-19 19:10 33.799135 -118.337787 37 106ft 0kts
13-Dec-19 19:11 33.799136 -118.337786 37 106ft 0kts
13-Dec-19 19:12 33.799137 -118.337784 37 106ft 0kts
13-Dec-19 19:13 33.799383 -118.337251 41 106ft 7kts
13-Dec-19 19:14 33.798065 -118.334489 119 106ft 5kts
13-Dec-19 19:15 33.799165 -118.333268 30 106ft 0kts
13-Dec-19 19:16 33.801869 -118.336229 310 114ft 59kts
13-Dec-19 19:17 33.813648 -118.354015 308 838ft 72kts
13-Dec-19 19:18 33.825482 -118.373132 308 1566ft 73kts
13-Dec-19 19:19 33.839083 -118.392594 302 2182ft 84kts
13-Dec-19 19:20 33.857520 -118.412684 292 2742ft 87kts
13-Dec-19 19:21 33.846006 -118.426240 207 3251ft 71kts
13-Dec-19 19:22 33.827132 -118.433704 206 3830ft 73kts
13-Dec-19 19:23 33.803036 -118.439501 198 4036ft 102kts
13-Dec-19 19:24 33.773632 -118.444325 201 4209ft 108kts
13-Dec-19 19:25 33.749163 -118.427008 87 4109ft 140kts
13-Dec-19 19:26 33.757365 -118.385851 100 3880ft 124kts
13-Dec-19 19:27 33.758047 -118.345745 82 3845ft 117kts
13-Dec-19 19:28 33.769226 -118.307542 64 3821ft 117kts
13-Dec-19 19:29 33.772673 -118.269660 86 3962ft 114kts
13-Dec-19 19:30 33.775176 -118.231395 49 4025ft 120kts
13-Dec-19 19:31 33.797924 -118.238433 296 4067ft 99kts
13-Dec-19 19:32 33.819762 -118.262458 308 3996ft 107kts
13-Dec-19 19:33 33.841867 -118.284839 310 4087ft 102kts
13-Dec-19 19:34 33.863258 -118.308689 311 4062ft 107kts
13-Dec-19 19:35 33.884651 -118.333657 315 3950ft 113kts
13-Dec-19 19:36 33.909328 -118.354736 325 3959ft 113kts
13-Dec-19 19:37 33.931303 -118.379658 314 3876ft 113kts
13-Dec-19 19:38 33.955350 -118.400670 303 4003ft 105kts
13-Dec-19 19:39 33.977940 -118.424041 311 3971ft 110kts
13-Dec-19 19:40 34.001024 -118.446869 317 4040ft 106kts
13-Dec-19 19:41 34.024235 -118.468556 315 4078ft 106kts
13-Dec-19 19:42 34.048843 -118.489826 320 4027ft 110kts
13-Dec-19 19:43 34.073337 -118.510503 309 4045ft 106kts
13-Dec-19 19:44 34.097570 -118.531706 313 4038ft 108kts
13-Dec-19 19:45 34.121625 -118.552606 315 4258ft 93kts
13-Dec-19 19:46 34.140744 -118.566926 338 4984ft 72kts
13-Dec-19 19:47 34.166399 -118.565835 351 5030ft 95kts
13-Dec-19 19:48 34.193925 -118.566065 349 4974ft 101kts
13-Dec-19 19:49 34.222234 -118.565158 354 4990ft 102kts
13-Dec-19 19:50 34.250503 -118.565064 353 4954ft 106kts
13-Dec-19 19:51 34.278302 -118.566121 343 4973ft 100kts
13-Dec-19 19:52 34.305859 -118.570417 346 5038ft 100kts
13-Dec-19 19:53 34.331882 -118.576284 344 5066ft 92kts
13-Dec-19 19:54 34.358307 -118.582137 345 5038ft 104kts
13-Dec-19 19:55 34.386557 -118.587521 344 5051ft 105kts
13-Dec-19 19:56 34.415770 -118.592807 342 4997ft 103kts
13-Dec-19 19:57 34.444675 -118.597804 342 5003ft 104kts
13-Dec-19 19:58 34.467763 -118.581607 84 4995ft 138kts
13-Dec-19 19:59 34.468326 -118.535113 103 4990ft 140kts
13-Dec-19 20:00 34.437037 -118.515408 188 4884ft 128kts
13-Dec-19 20:01 34.401578 -118.504869 182 4885ft 134kts
13-Dec-19 20:02 34.370039 -118.508465 192 4134ft 100kts
13-Dec-19 20:03 34.344531 -118.504958 173 3786ft 88kts
13-Dec-19 20:04 34.322432 -118.501898 177 3658ft 80kts
13-Dec-19 20:05 34.301263 -118.500029 184 3117ft 70kts
13-Dec-19 20:06 34.281234 -118.497405 185 2555ft 77kts
13-Dec-19 20:07 34.253922 -118.494842 174 1940ft 109kts
13-Dec-19 20:08 34.223056 -118.491602 170 1213ft 116kts
13-Dec-19 20:09 34.191321 -118.487673 173 1571ft 118kts
13-Dec-19 20:10 34.166275 -118.468088 177 2206ft 115kts
13-Dec-19 20:11 34.137293 -118.464233 194 2746ft 101kts
13-Dec-19 20:12 34.108060 -118.456257 185 3127ft 102kts
13-Dec-19 20:13 34.083674 -118.448514 178 3758ft 90kts
13-Dec-19 20:14 34.057677 -118.445662 176 4171ft 100kts
13-Dec-19 20:15 34.030699 -118.441822 200 4550ft 105kts
13-Dec-19 20:17 34.014194 -118.465669 275 4480ft 93kts
13-Dec-19 20:18 34.016218 -118.497161 265 4021ft 105kts
13-Dec-19 20:19 34.019890 -118.528234 270 3997ft 89kts
13-Dec-19 20:20 34.023361 -118.557437 274 4020ft 87kts
13-Dec-19 20:21 34.028367 -118.586426 292 3977ft 94kts
13-Dec-19 20:22 34.055092 -118.593653 352 3949ft 106kts
13-Dec-19 20:23 34.082402 -118.602352 330 3984ft 101kts
13-Dec-19 20:24 34.109365 -118.612913 334 4028ft 100kts
13-Dec-19 20:25 34.136640 -118.623073 335 4016ft 104kts
13-Dec-19 20:26 34.164223 -118.633470 329 4011ft 103kts
13-Dec-19 20:27 34.190351 -118.646096 338 4003ft 106kts
13-Dec-19 20:28 34.202370 -118.616570 102 3660ft 126kts
13-Dec-19 20:29 34.200563 -118.580936 103 3080ft 102kts
13-Dec-19 20:30 34.200688 -118.545902 101 2478ft 107kts
13-Dec-19 20:31 34.200524 -118.511140 75 1838ft 100kts
13-Dec-19 20:32 34.204062 -118.483423 44 1739ft 72kts
13-Dec-19 20:33 34.212728 -118.461419 143 1458ft 104kts
13-Dec-19 20:34 34.211691 -118.465795 12 1370ft 73kts
13-Dec-19 20:35 34.219553 -118.478191 279 1451ft 68kts
13-Dec-19 20:36 34.205132 -118.488443 183 900ft 82kts
13-Dec-19 20:37 34.180932 -118.487184 182 1103ft 98kts
13-Dec-19 20:37 34.174053 -118.470661 358 1683ft 77kts
13-Dec-19 20:39 34.198448 -118.469376 0 1728ft 69kts
13-Dec-19 20:40 34.216800 -118.469097 355 1683ft 63kts
13-Dec-19 20:40 34.228544 -118.473037 275 1302ft 71kts
13-Dec-19 20:41 34.221519 -118.490811 166 1032ft 97kts
13-Dec-19 20:42 34.207533 -118.488780 127 805ft 7kts
13-Dec-19 20:43 34.207516 -118.487914 86 805ft 13kts
13-Dec-19 20:45 34.207544 -118.487365 91 805ft 0kts
13-Dec-19 20:45 34.207544 -118.487363 91 805ft 0kts

Navigation Log

Ident Type
Flight plan parsing failed, navigation log unavailable